PAYA/YAK METAR and TAF weather

Enter ICAO airport designator
Station Type Date Time Source
PAYA METAR 2020/04/07 07:53 UTC NOAA

PAYA 070753Z AUTO 07004KT 10SM CLR M02/M03 A2999 RMK AO2 SLP154 T10221033 TSNO


Station Type Date Time Source
PAYA Decoded METAR 2020/04/07 07:53 UTC NOAA

YAKUTAT AIRPORT, AK, United States (PAYA) 59-30N 139-40W 9M
Apr 07, 2020 - 03:53 AM EDT / 2020.04.07 0753 UTC
Wind: from the ENE (070 degrees) at 5 MPH (4 KT):0
Visibility: 10 mile(s):0
Sky conditions: clear
Temperature: 28.0 F (-2.2 C)
Windchill: 23 F (-5 C):1
Dew Point: 26.1 F (-3.3 C)
Relative Humidity: 92%
Pressure (altimeter): 29.99 in. Hg (1015 hPa)
ob: PAYA 070753Z AUTO 07004KT 10SM CLR M02/M03 A2999 RMK AO2 SLP154 T10221033 TSNO
cycle: 8

Station Type Date Time Source
PAYA TAF 2020/04/07 06:42 UTC NOAA

TAF PAYA 070540Z 0706/0806 VRB03KT P6SM VCSH SCT035 BKN050
TEMPO 0706/0708 1SM -SHSN BR BKN025
FM071000 VRB02KT P6SM SCT050
AMD LTD TO CLD VIS AND WIND

Example: see airport list